createdAt,value
2022-11-28T00:01:47.862Z,19.43
2022-11-28T00:04:15.545Z,20.07
2022-11-28T00:06:45.914Z,19.80
2022-11-28T00:09:16.656Z,19.47
2022-11-28T00:11:45.436Z,19.10
2022-11-28T00:14:14.288Z,19.63
2022-11-28T00:16:41.761Z,20.13
2022-11-28T00:19:10.033Z,19.90
2022-11-28T00:21:37.719Z,19.57
2022-11-28T00:24:05.636Z,20.10
2022-11-28T00:26:35.314Z,20.10
2022-11-28T00:29:03.950Z,21.20
2022-11-28T00:31:35.543Z,19.80
2022-11-28T00:34:03.435Z,19.87
2022-11-28T00:36:31.014Z,20.13
2022-11-28T00:38:58.467Z,21.00
2022-11-28T00:41:29.467Z,21.20
2022-11-28T00:43:57.227Z,21.37
2022-11-28T00:46:25.377Z,21.47
2022-11-28T00:48:54.629Z,21.37
2022-11-28T00:51:23.703Z,21.50
2022-11-28T00:53:53.199Z,21.60
2022-11-28T00:56:22.398Z,22.10
2022-11-28T00:58:50.006Z,21.57
2022-11-28T01:01:19.066Z,21.50
2022-11-28T01:03:47.170Z,21.30
2022-11-28T01:06:22.053Z,21.47
2022-11-28T01:08:49.480Z,21.40
2022-11-28T01:11:17.007Z,21.73
2022-11-28T01:13:44.509Z,22.10
2022-11-28T01:16:12.042Z,21.97
2022-11-28T01:18:39.628Z,21.40
2022-11-28T01:21:07.722Z,21.43
2022-11-28T01:23:36.679Z,21.73
2022-11-28T01:26:05.524Z,20.93
2022-11-28T01:28:33.224Z,21.80
2022-11-28T01:31:04.433Z,20.53
2022-11-28T01:33:31.992Z,20.17
2022-11-28T01:36:00.207Z,20.67
2022-11-28T01:38:28.273Z,20.80
2022-11-28T01:40:57.293Z,21.33
2022-11-28T01:43:25.468Z,20.83
2022-11-28T01:45:53.323Z,20.77
2022-11-28T01:48:23.540Z,21.30
2022-11-28T01:50:51.287Z,20.50
2022-11-28T01:53:18.864Z,21.17
2022-11-28T01:55:49.924Z,20.73
2022-11-28T01:58:18.757Z,20.50
2022-11-28T02:00:47.284Z,20.67
2022-11-28T02:03:19.315Z,21.17
2022-11-28T02:05:47.448Z,21.60
2022-11-28T02:08:14.939Z,20.80
2022-11-28T02:10:53.959Z,20.30
2022-11-28T02:13:31.112Z,20.33
2022-11-28T02:16:14.496Z,21.27
2022-11-28T02:18:53.052Z,21.37
2022-11-28T02:21:25.572Z,20.60
2022-11-28T02:24:17.358Z,21.30
2022-11-28T02:26:59.475Z,21.23
2022-11-28T02:29:49.566Z,20.73
2022-11-28T02:32:28.673Z,20.53
2022-11-28T02:34:58.130Z,21.40
2022-11-28T02:37:29.975Z,20.73
2022-11-28T02:40:06.607Z,20.83
2022-11-28T02:42:41.192Z,20.93
2022-11-28T02:45:11.487Z,20.33
2022-11-28T02:47:44.723Z,20.40
2022-11-28T02:50:15.059Z,21.50
2022-11-28T02:52:46.588Z,20.83
2022-11-28T02:55:14.932Z,20.80
2022-11-28T02:57:44.275Z,21.50
2022-11-28T03:00:30.097Z,22.30
2022-11-28T03:03:27.080Z,22.43
2022-11-28T03:05:59.591Z,22.40
2022-11-28T03:08:37.654Z,22.57
2022-11-28T03:11:11.131Z,22.60
2022-11-28T03:13:41.118Z,22.33
2022-11-28T03:16:15.665Z,23.07
2022-11-28T03:18:48.919Z,23.50
2022-11-28T03:21:20.183Z,22.67
2022-11-28T03:23:49.853Z,22.57
2022-11-28T03:26:20.286Z,23.10
2022-11-28T03:28:52.707Z,23.20
2022-11-28T03:31:23.238Z,22.83
2022-11-28T03:33:56.621Z,21.87
2022-11-28T03:36:27.608Z,23.10
2022-11-28T03:39:00.516Z,22.70
2022-11-28T03:41:30.867Z,24.00
2022-11-28T03:43:59.389Z,22.90
2022-11-28T03:46:31.785Z,23.53
2022-11-28T03:49:01.641Z,22.60
2022-11-28T03:51:31.952Z,23.00
2022-11-28T03:54:02.532Z,23.93
2022-11-28T03:56:36.003Z,22.23
2022-11-28T03:59:07.507Z,21.77
2022-11-28T04:01:38.145Z,22.13
2022-11-28T04:04:13.251Z,23.40
2022-11-28T04:06:51.773Z,25.83
2022-11-28T04:09:21.088Z,25.47
2022-11-28T04:11:53.184Z,24.53
2022-11-28T04:14:25.636Z,24.17
2022-11-28T04:16:54.558Z,24.47
2022-11-28T04:19:26.751Z,24.23
2022-11-28T04:21:58.315Z,24.87
2022-11-28T04:24:28.207Z,24.10
2022-11-28T04:26:58.288Z,23.50
2022-11-28T04:29:26.175Z,21.83
2022-11-28T04:31:56.604Z,22.17
2022-11-28T04:34:26.687Z,21.53
2022-11-28T04:36:54.988Z,22.00
2022-11-28T04:39:24.363Z,21.17
2022-11-28T04:41:54.834Z,20.70
2022-11-28T04:44:28.577Z,20.63
2022-11-28T04:46:57.810Z,20.93
2022-11-28T04:49:27.534Z,20.27
2022-11-28T04:52:00.162Z,20.80
2022-11-28T04:54:31.520Z,21.23
2022-11-28T04:57:01.920Z,22.93
2022-11-28T04:59:31.317Z,24.60
2022-11-28T05:01:59.743Z,23.70
2022-11-28T05:04:28.783Z,24.80
2022-11-28T05:07:03.115Z,24.60
2022-11-28T05:09:30.578Z,24.47
2022-11-28T05:11:58.145Z,25.47
2022-11-28T05:14:25.699Z,25.27
2022-11-28T05:16:53.183Z,24.00
2022-11-28T05:19:20.696Z,24.07
2022-11-28T05:21:49.467Z,24.10
2022-11-28T05:24:17.032Z,24.47
2022-11-28T05:26:44.496Z,23.20
2022-11-28T05:29:11.966Z,24.07
2022-11-28T05:31:39.483Z,24.80
2022-11-28T05:34:06.987Z,24.43
2022-11-28T05:36:34.452Z,24.80
2022-11-28T05:39:03.246Z,24.70
2022-11-28T05:41:32.675Z,25.30
2022-11-28T05:44:00.836Z,25.10
2022-11-28T05:46:29.527Z,25.03
2022-11-28T05:48:57.580Z,25.43
2022-11-28T05:51:25.072Z,25.57
2022-11-28T05:53:52.587Z,25.43
2022-11-28T05:56:22.921Z,24.90
2022-11-28T05:58:50.423Z,24.10
2022-11-28T06:01:19.718Z,25.17
2022-11-28T06:03:47.615Z,25.33
2022-11-28T06:06:17.053Z,24.83
2022-11-28T06:08:45.301Z,25.40
2022-11-28T06:11:14.703Z,25.73
2022-11-28T06:13:43.816Z,25.93
2022-11-28T06:16:12.432Z,25.40
2022-11-28T06:18:40.345Z,25.37
2022-11-28T06:21:09.312Z,26.27
2022-11-28T06:23:38.335Z,25.50
2022-11-28T06:26:07.384Z,26.37
2022-11-28T06:28:35.291Z,27.67
2022-11-28T06:31:04.674Z,27.67
2022-11-28T06:33:32.161Z,26.10
2022-11-28T06:36:00.893Z,27.70
2022-11-28T06:38:28.473Z,29.57
2022-11-28T06:40:57.521Z,26.33
2022-11-28T06:43:25.119Z,24.80
2022-11-28T06:45:52.875Z,24.70
2022-11-28T06:48:21.689Z,25.00
2022-11-28T06:50:49.552Z,25.03
2022-11-28T06:53:17.291Z,24.47
2022-11-28T06:55:44.846Z,25.43
2022-11-28T06:58:12.471Z,25.33
2022-11-28T07:00:40.218Z,25.27
2022-11-28T07:03:07.898Z,24.20
2022-11-28T07:05:36.731Z,25.07
2022-11-28T07:08:04.203Z,24.37
2022-11-28T07:10:31.906Z,26.20
2022-11-28T07:13:05.086Z,23.93
2022-11-28T07:15:33.101Z,24.67
2022-11-28T07:18:00.862Z,23.93
2022-11-28T07:20:28.313Z,23.80
2022-11-28T07:22:57.149Z,29.80
2022-11-28T07:25:24.555Z,29.43
2022-11-28T07:27:52.031Z,28.30
2022-11-28T07:30:19.956Z,27.70
2022-11-28T07:32:47.382Z,26.70
2022-11-28T07:35:14.823Z,26.53
2022-11-28T07:37:42.234Z,26.67
2022-11-28T07:40:13.389Z,24.43
2022-11-28T07:42:40.784Z,25.10
2022-11-28T07:45:10.843Z,25.47
2022-11-28T07:47:39.733Z,25.97
2022-11-28T07:50:08.416Z,26.23
2022-11-28T07:52:35.838Z,27.63
2022-11-28T07:55:03.347Z,27.30
2022-11-28T07:57:32.132Z,28.13
2022-11-28T07:59:59.648Z,24.07
2022-11-28T08:02:27.880Z,25.30
2022-11-28T08:04:55.769Z,24.67
2022-11-28T08:07:23.282Z,25.47
2022-11-28T08:09:53.071Z,27.20
2022-11-28T08:12:20.511Z,25.97
2022-11-28T08:14:49.366Z,27.27
2022-11-28T08:17:16.973Z,27.50
2022-11-28T08:19:44.394Z,26.67
2022-11-28T08:22:11.844Z,26.03
2022-11-28T08:24:39.491Z,26.57
2022-11-28T08:27:07.014Z,27.03
2022-11-28T08:29:34.473Z,26.23
2022-11-28T08:32:03.271Z,25.83
2022-11-28T08:34:30.668Z,26.13
2022-11-28T08:36:58.284Z,26.43
2022-11-28T08:39:25.794Z,26.27
2022-11-28T08:41:54.068Z,25.40
2022-11-28T08:44:21.491Z,25.23
2022-11-28T08:46:48.950Z,25.00
2022-11-28T08:49:17.752Z,24.70
2022-11-28T08:51:45.223Z,24.43
2022-11-28T08:54:12.792Z,24.47
2022-11-28T08:56:40.243Z,24.87
2022-11-28T08:59:07.863Z,25.63
2022-11-28T09:01:35.499Z,23.53
2022-11-28T09:04:02.994Z,26.73
2022-11-28T09:06:31.872Z,26.13
2022-11-28T09:08:59.444Z,26.80
2022-11-28T09:11:26.881Z,26.37
2022-11-28T09:13:55.584Z,25.73
2022-11-28T09:16:23.358Z,26.00
2022-11-28T09:18:51.051Z,26.73
2022-11-28T09:21:18.538Z,26.20
2022-11-28T09:23:47.550Z,28.40
2022-11-28T09:26:16.484Z,26.70
2022-11-28T09:28:44.139Z,27.50
2022-11-28T09:31:13.193Z,26.13
2022-11-28T09:33:40.936Z,26.87
2022-11-28T09:36:10.299Z,27.33
2022-11-28T09:38:37.967Z,25.60
2022-11-28T09:41:30.563Z,26.50
2022-11-28T09:44:00.831Z,26.30
2022-11-28T09:46:30.842Z,26.83
2022-11-28T09:49:00.799Z,26.50
2022-11-28T09:51:30.727Z,26.23
2022-11-28T09:54:05.399Z,26.83
2022-11-28T09:56:34.145Z,27.17
2022-11-28T09:59:03.414Z,27.47
2022-11-28T10:01:37.587Z,28.40
2022-11-28T10:04:08.363Z,26.63
2022-11-28T10:06:40.236Z,26.80
2022-11-28T10:09:21.426Z,25.97
2022-11-28T10:12:01.482Z,26.50
2022-11-28T10:15:08.686Z,26.17
2022-11-28T10:17:44.842Z,25.27
2022-11-28T10:20:15.707Z,26.47
2022-11-28T10:22:47.095Z,25.73
2022-11-28T10:25:18.343Z,25.87
2022-11-28T10:27:50.826Z,26.17
2022-11-28T10:30:23.574Z,24.77
2022-11-28T10:32:58.848Z,24.00
2022-11-28T10:35:29.799Z,24.70
2022-11-28T10:37:57.327Z,24.60
2022-11-28T10:40:30.764Z,24.80
2022-11-28T10:43:03.654Z,24.90
2022-11-28T10:45:40.257Z,24.23
2022-11-28T10:51:14.216Z,25.87
2022-11-28T10:53:47.190Z,31.53
2022-11-28T10:56:23.492Z,25.87
2022-11-28T10:58:56.420Z,26.77
2022-11-28T11:01:24.032Z,26.43
2022-11-28T11:03:51.561Z,31.00
2022-11-28T11:06:18.946Z,27.27
2022-11-28T11:08:46.489Z,26.37
2022-11-28T11:11:23.023Z,27.17
2022-11-28T11:14:00.818Z,27.07
2022-11-28T11:16:48.245Z,26.90
2022-11-28T11:19:24.633Z,26.20
2022-11-28T11:22:00.441Z,27.57
2022-11-28T11:24:27.861Z,25.33
2022-11-28T11:26:55.655Z,26.57
2022-11-28T11:29:31.082Z,26.40
2022-11-28T11:32:03.372Z,26.63
2022-11-28T11:34:36.038Z,27.13
2022-11-28T11:37:19.500Z,26.60
2022-11-28T11:39:51.950Z,26.20
2022-11-28T11:42:23.591Z,25.80
2022-11-28T11:44:53.204Z,26.87
2022-11-28T11:47:20.683Z,27.20
2022-11-28T11:49:49.656Z,25.77
2022-11-28T11:52:22.630Z,25.93
2022-11-28T11:54:59.707Z,26.40
2022-11-28T11:57:33.611Z,25.03
2022-11-28T12:00:06.803Z,24.53
2022-11-28T12:02:42.874Z,25.60
2022-11-28T12:05:13.000Z,25.80
2022-11-28T12:07:43.574Z,24.93
2022-11-28T12:10:14.078Z,24.83
2022-11-28T12:12:42.026Z,25.20
2022-11-28T12:15:18.567Z,24.37
2022-11-28T12:17:59.007Z,24.50
2022-11-28T12:20:36.024Z,24.70
2022-11-28T12:23:17.004Z,24.43
2022-11-28T12:25:48.767Z,25.10
2022-11-28T12:28:27.647Z,24.90
2022-11-28T12:31:04.026Z,24.17
2022-11-28T12:33:39.975Z,24.43
2022-11-28T12:36:13.199Z,24.27
2022-11-28T12:38:56.530Z,24.23
2022-11-28T12:41:33.992Z,24.73
2022-11-28T12:44:06.484Z,25.10
2022-11-28T12:46:41.481Z,24.20
2022-11-28T12:49:17.355Z,25.00
2022-11-28T12:51:58.248Z,23.80
2022-11-28T12:54:43.147Z,24.67
2022-11-28T12:57:16.177Z,23.87
2022-11-28T12:59:48.699Z,24.23
2022-11-28T13:02:27.313Z,24.63
2022-11-28T13:05:05.306Z,23.80
2022-11-28T13:07:41.520Z,25.13
2022-11-28T13:10:15.348Z,25.07
2022-11-28T13:12:48.539Z,23.77
2022-11-28T13:15:21.875Z,26.03
2022-11-28T13:17:55.168Z,27.07
2022-11-28T13:20:26.940Z,28.10
2022-11-28T13:23:06.501Z,27.47
2022-11-28T13:25:40.512Z,28.77
2022-11-28T13:28:13.363Z,28.57
2022-11-28T13:30:44.366Z,28.87
2022-11-28T13:33:26.232Z,28.67
2022-11-28T13:35:54.219Z,29.03
2022-11-28T13:38:53.164Z,27.57
2022-11-28T13:41:52.589Z,27.07
2022-11-28T13:44:15.313Z,27.93
2022-11-28T13:46:43.593Z,27.20
2022-11-28T13:49:21.519Z,26.63
2022-11-28T13:51:49.577Z,26.13
2022-11-28T13:54:43.049Z,26.83
2022-11-28T13:57:22.620Z,26.73
2022-11-28T13:59:53.366Z,27.20
2022-11-28T14:02:24.252Z,25.80
2022-11-28T14:04:53.037Z,27.13
2022-11-28T14:07:29.401Z,25.37
2022-11-28T14:10:08.677Z,25.47
2022-11-28T14:12:43.223Z,25.70
2022-11-28T14:15:25.188Z,25.80
2022-11-28T14:18:18.955Z,24.90
2022-11-28T14:20:59.939Z,25.30
2022-11-28T14:23:33.134Z,24.67
2022-11-28T14:26:00.839Z,25.70
2022-11-28T14:28:36.500Z,24.83
2022-11-28T14:31:07.907Z,25.97
2022-11-28T14:33:37.303Z,24.77
2022-11-28T14:36:28.680Z,25.17
2022-11-28T14:39:09.303Z,24.57
2022-11-28T14:42:10.191Z,25.47
2022-11-28T14:44:50.520Z,25.47
2022-11-28T14:47:28.731Z,26.17
2022-11-28T14:50:29.711Z,26.03
2022-11-28T14:55:51.571Z,25.60
2022-11-28T14:58:19.480Z,25.03
2022-11-28T15:00:53.632Z,24.77
2022-11-28T15:03:30.515Z,24.97
2022-11-28T15:06:02.318Z,24.57
2022-11-28T15:08:46.005Z,24.97
2022-11-28T15:11:29.983Z,26.10
2022-11-28T15:14:08.967Z,26.37
2022-11-28T15:16:39.368Z,25.37
2022-11-28T15:19:09.215Z,26.73
2022-11-28T15:21:44.550Z,25.10
2022-11-28T15:24:22.735Z,24.50
2022-11-28T15:26:57.216Z,24.57
2022-11-28T15:29:27.021Z,26.10
2022-11-28T15:31:56.879Z,25.83
2022-11-28T15:34:27.378Z,25.70
2022-11-28T15:36:55.759Z,24.77
2022-11-28T15:39:29.538Z,25.27
2022-11-28T15:42:00.261Z,25.00
2022-11-28T15:44:28.475Z,25.63
2022-11-28T15:46:56.357Z,26.57
2022-11-28T15:49:25.882Z,26.83
2022-11-28T15:51:54.323Z,25.47
2022-11-28T15:54:32.482Z,25.60
2022-11-28T15:57:02.122Z,26.20
2022-11-28T15:59:31.785Z,26.47
2022-11-28T16:02:02.318Z,25.97
2022-11-28T16:04:30.796Z,26.43
2022-11-28T16:06:59.858Z,26.03
2022-11-28T16:09:30.740Z,27.30
2022-11-28T16:11:58.211Z,28.30
2022-11-28T16:14:29.910Z,26.77
2022-11-28T16:17:00.829Z,27.23
2022-11-28T16:19:32.263Z,26.50
2022-11-28T16:22:01.516Z,27.23
2022-11-28T16:24:36.905Z,26.77
2022-11-28T16:27:07.103Z,26.10
2022-11-28T16:29:37.189Z,27.63
2022-11-28T16:32:09.194Z,27.90
2022-11-28T16:34:47.074Z,26.50
2022-11-28T16:37:15.172Z,27.83
2022-11-28T16:39:42.843Z,27.47
2022-11-28T16:42:15.298Z,26.80
2022-11-28T16:44:44.277Z,27.90
2022-11-28T16:47:26.386Z,27.67
2022-11-28T16:50:21.525Z,27.90
2022-11-28T16:52:51.111Z,28.37
2022-11-28T16:55:46.073Z,28.77
2022-11-28T16:58:18.838Z,28.57
2022-11-28T17:01:01.048Z,29.07
2022-11-28T17:03:44.925Z,27.60
2022-11-28T17:06:17.438Z,29.43
2022-11-28T17:08:44.916Z,28.70
2022-11-28T17:11:12.766Z,29.17
2022-11-28T17:13:40.287Z,29.17
2022-11-28T17:16:20.010Z,27.00
2022-11-28T17:18:48.105Z,27.17
2022-11-28T17:21:16.937Z,27.60
2022-11-28T17:23:44.780Z,29.23
2022-11-28T17:26:12.451Z,27.47
2022-11-28T17:28:39.955Z,26.43
2022-11-28T17:31:07.539Z,26.07
2022-11-28T17:33:40.532Z,25.97
2022-11-28T17:36:11.641Z,27.07
2022-11-28T17:38:39.088Z,27.17
2022-11-28T17:41:06.976Z,26.87
2022-11-28T17:43:38.893Z,26.83
2022-11-28T17:46:06.941Z,28.03
2022-11-28T17:48:36.135Z,30.77
2022-11-28T17:51:03.968Z,29.67
2022-11-28T17:53:31.771Z,28.40
2022-11-28T17:55:59.863Z,29.83
2022-11-28T17:58:28.726Z,29.03
2022-11-28T18:01:00.474Z,28.27
2022-11-28T18:03:29.175Z,28.93
2022-11-28T18:06:00.682Z,28.63
2022-11-28T18:08:29.381Z,28.27
2022-11-28T18:11:04.187Z,29.23
2022-11-28T18:13:31.873Z,35.17
2022-11-28T18:15:59.712Z,37.80
2022-11-28T18:18:27.855Z,30.60
2022-11-28T18:20:58.398Z,31.17
2022-11-28T18:23:27.374Z,29.67
2022-11-28T18:25:54.837Z,30.83
2022-11-28T18:28:22.796Z,32.50
2022-11-28T18:30:50.623Z,32.40
2022-11-28T18:33:18.171Z,38.23
2022-11-28T18:35:45.795Z,35.77
2022-11-28T18:38:13.287Z,35.13
2022-11-28T18:40:43.124Z,36.60
2022-11-28T18:43:10.587Z,38.50
2022-11-28T18:45:38.430Z,35.33
2022-11-28T18:48:06.839Z,32.77
2022-11-28T18:50:35.522Z,38.50
2022-11-28T18:53:03.036Z,32.30
2022-11-28T18:55:30.499Z,31.77
2022-11-28T18:57:59.755Z,29.43
2022-11-28T19:00:27.300Z,28.33
2022-11-28T19:02:55.441Z,28.13
2022-11-28T19:05:23.724Z,27.83
2022-11-28T19:07:51.160Z,27.30
2022-11-28T19:10:18.907Z,28.87
2022-11-28T19:12:46.976Z,28.90
2022-11-28T19:15:15.884Z,28.37
2022-11-28T19:17:43.364Z,28.50
2022-11-28T19:20:11.932Z,28.63
2022-11-28T19:22:39.652Z,28.77
2022-11-28T19:25:08.675Z,28.87
2022-11-28T19:27:36.223Z,28.17
2022-11-28T19:30:03.870Z,29.40
2022-11-28T19:32:34.518Z,29.27
2022-11-28T19:35:01.975Z,29.57
2022-11-28T19:37:29.633Z,29.27
2022-11-28T19:40:02.148Z,29.20
2022-11-28T19:42:30.264Z,28.50
2022-11-28T19:44:58.680Z,29.73
2022-11-28T19:47:26.218Z,30.37
2022-11-28T19:49:54.964Z,30.17
2022-11-28T19:52:22.915Z,30.70
2022-11-28T19:54:50.823Z,31.13
2022-11-28T19:57:20.491Z,30.90
2022-11-28T19:59:48.199Z,29.63
2022-11-28T20:02:15.771Z,29.40
2022-11-28T20:04:43.538Z,30.70
2022-11-28T20:07:12.304Z,29.37
2022-11-28T20:09:39.934Z,30.40
2022-11-28T20:12:07.784Z,29.27
2022-11-28T20:14:35.811Z,30.03
2022-11-28T20:17:04.743Z,30.87
2022-11-28T20:19:34.878Z,29.80
2022-11-28T20:22:02.488Z,30.83
2022-11-28T20:24:31.654Z,29.50
2022-11-28T20:26:59.131Z,30.53
2022-11-28T20:29:27.875Z,28.80
2022-11-28T20:31:56.970Z,29.33
2022-11-28T20:34:24.842Z,29.00
2022-11-28T20:36:53.588Z,27.97
2022-11-28T20:39:21.674Z,29.27
2022-11-28T20:41:50.537Z,28.93
2022-11-28T20:44:18.780Z,27.63
2022-11-28T20:46:46.319Z,27.37
2022-11-28T20:49:15.011Z,27.40
2022-11-28T20:51:43.227Z,27.43
2022-11-28T20:54:12.363Z,26.97
2022-11-28T20:59:31.244Z,27.17
2022-11-28T21:01:58.736Z,27.10
2022-11-28T21:04:26.216Z,28.03
2022-11-28T21:06:53.627Z,28.30
2022-11-28T21:09:21.077Z,27.47
2022-11-28T21:11:57.936Z,28.67
2022-11-28T21:14:26.748Z,28.73
2022-11-28T21:16:55.637Z,31.60
2022-11-28T21:19:23.272Z,31.87
2022-11-28T21:21:50.723Z,30.57
2022-11-28T21:24:18.193Z,31.47
2022-11-28T21:26:51.237Z,32.17
2022-11-28T21:29:20.240Z,31.37
2022-11-28T21:31:48.002Z,30.13
2022-11-28T21:34:17.459Z,30.37
2022-11-28T21:36:45.484Z,29.97
2022-11-28T21:39:14.177Z,28.03
2022-11-28T21:41:41.714Z,27.10
2022-11-28T21:44:09.689Z,27.77
2022-11-28T21:46:37.195Z,27.90
2022-11-28T21:49:05.492Z,27.63
2022-11-28T21:51:37.941Z,29.70
2022-11-28T21:54:05.673Z,30.47
2022-11-28T21:56:36.100Z,30.47
2022-11-28T21:59:05.281Z,30.97
2022-11-28T22:01:32.757Z,31.80
2022-11-28T22:04:03.035Z,31.43
2022-11-28T22:06:32.015Z,30.90
2022-11-28T22:09:08.726Z,30.87
2022-11-28T22:11:36.712Z,30.87
2022-11-28T22:14:04.691Z,30.73
2022-11-28T22:16:32.165Z,30.30
2022-11-28T22:19:00.670Z,29.93
2022-11-28T22:21:51.221Z,29.90
2022-11-28T22:24:17.270Z,31.03
2022-11-28T22:26:44.827Z,30.37
2022-11-28T22:29:13.398Z,31.60
2022-11-28T22:31:41.610Z,31.97
2022-11-28T22:34:09.383Z,31.87
2022-11-28T22:36:37.106Z,30.80
2022-11-28T22:39:06.064Z,31.77
2022-11-28T22:41:35.007Z,30.90
2022-11-28T22:44:04.021Z,30.73
2022-11-28T22:46:32.454Z,30.73
2022-11-28T22:49:01.280Z,30.27
2022-11-28T22:51:29.647Z,29.60
2022-11-28T22:53:58.698Z,28.83
2022-11-28T22:56:28.335Z,29.73
2022-11-28T22:58:57.328Z,28.07
2022-11-28T23:01:26.699Z,29.20
2022-11-28T23:03:55.005Z,29.63
2022-11-28T23:06:25.741Z,29.33
2022-11-28T23:08:56.549Z,29.93
2022-11-28T23:11:28.877Z,30.17
2022-11-28T23:13:57.661Z,28.40
2022-11-28T23:16:27.628Z,29.40
2022-11-28T23:18:57.347Z,30.43
2022-11-28T23:21:26.139Z,29.67
2022-11-28T23:23:54.031Z,29.97
2022-11-28T23:26:23.820Z,29.83
2022-11-28T23:28:52.002Z,29.63
2022-11-28T23:31:22.751Z,30.43
2022-11-28T23:33:50.919Z,29.07
2022-11-28T23:36:21.765Z,28.47
2022-11-28T23:38:52.057Z,30.03
2022-11-28T23:41:19.815Z,29.67
2022-11-28T23:43:47.480Z,29.73
2022-11-28T23:46:18.979Z,28.53
2022-11-28T23:48:48.397Z,31.23
2022-11-28T23:51:17.125Z,29.10
2022-11-28T23:53:44.955Z,30.03
2022-11-28T23:56:14.082Z,30.67
2022-11-28T23:58:41.928Z,30.17
